sensor_id;sensor_type;location;lat;lon;timestamp;P1;durP1;ratioP1;P2;durP2;ratioP2
17261;SDS011;9873;52.236;21.002;2022-09-03T00:09:24;7.87;;;3.90;;
17261;SDS011;9873;52.236;21.002;2022-09-03T00:19:48;7.30;;;3.77;;
17261;SDS011;9873;52.236;21.002;2022-09-03T00:29:59;6.47;;;3.53;;
17261;SDS011;9873;52.236;21.002;2022-09-03T00:40:05;6.00;;;3.23;;
17261;SDS011;9873;52.236;21.002;2022-09-03T01:00:39;7.57;;;3.30;;
17261;SDS011;9873;52.236;21.002;2022-09-03T01:42:11;6.57;;;2.93;;
17261;SDS011;9873;52.236;21.002;2022-09-03T01:52:24;4.27;;;2.97;;
17261;SDS011;9873;52.236;21.002;2022-09-03T02:02:38;7.33;;;3.13;;
17261;SDS011;9873;52.236;21.002;2022-09-03T02:12:47;5.97;;;2.47;;
17261;SDS011;9873;52.236;21.002;2022-09-03T02:22:52;4.63;;;2.70;;
17261;SDS011;9873;52.236;21.002;2022-09-03T02:32:58;4.50;;;3.00;;
17261;SDS011;9873;52.236;21.002;2022-09-03T02:43:01;6.60;;;3.03;;
17261;SDS011;9873;52.236;21.002;2022-09-03T02:53:07;3.97;;;2.63;;
17261;SDS011;9873;52.236;21.002;2022-09-03T03:03:11;5.93;;;2.87;;
17261;SDS011;9873;52.236;21.002;2022-09-03T03:13:16;6.70;;;2.80;;
17261;SDS011;9873;52.236;21.002;2022-09-03T03:23:22;5.40;;;2.90;;
17261;SDS011;9873;52.236;21.002;2022-09-03T03:33:27;4.57;;;3.13;;
17261;SDS011;9873;52.236;21.002;2022-09-03T03:43:34;6.63;;;3.00;;
17261;SDS011;9873;52.236;21.002;2022-09-03T03:53:37;6.90;;;2.73;;
17261;SDS011;9873;52.236;21.002;2022-09-03T04:03:44;4.13;;;2.80;;
17261;SDS011;9873;52.236;21.002;2022-09-03T04:13:49;5.10;;;2.80;;
17261;SDS011;9873;52.236;21.002;2022-09-03T04:23:55;6.20;;;3.30;;
17261;SDS011;9873;52.236;21.002;2022-09-03T04:34:00;6.53;;;3.03;;
17261;SDS011;9873;52.236;21.002;2022-09-03T04:44:08;6.53;;;2.87;;
17261;SDS011;9873;52.236;21.002;2022-09-03T04:54:13;4.43;;;2.77;;
17261;SDS011;9873;52.236;21.002;2022-09-03T05:04:16;4.57;;;2.50;;
17261;SDS011;9873;52.236;21.002;2022-09-03T05:14:25;7.60;;;2.88;;
17261;SDS011;9873;52.236;21.002;2022-09-03T05:24:29;4.90;;;2.85;;
17261;SDS011;9873;52.236;21.002;2022-09-03T05:34:31;3.53;;;2.30;;
17261;SDS011;9873;52.236;21.002;2022-09-03T05:44:34;6.22;;;3.00;;
17261;SDS011;9873;52.236;21.002;2022-09-03T05:54:40;4.45;;;2.83;;
17261;SDS011;9873;52.236;21.002;2022-09-03T06:04:45;4.22;;;2.33;;
17261;SDS011;9873;52.236;21.002;2022-09-03T06:14:51;5.72;;;2.70;;
17261;SDS011;9873;52.236;21.002;2022-09-03T06:24:56;7.47;;;2.70;;
17261;SDS011;9873;52.236;21.002;2022-09-03T06:34:59;5.55;;;2.33;;
17261;SDS011;9873;52.236;21.002;2022-09-03T06:45:04;3.10;;;2.35;;
17261;SDS011;9873;52.236;21.002;2022-09-03T06:55:12;10.15;;;2.70;;
17261;SDS011;9873;52.236;21.002;2022-09-03T07:05:17;5.43;;;2.67;;
17261;SDS011;9873;52.236;21.002;2022-09-03T07:15:20;7.65;;;2.42;;
17261;SDS011;9873;52.236;21.002;2022-09-03T07:25:23;6.75;;;2.50;;
17261;SDS011;9873;52.236;21.002;2022-09-03T07:35:27;6.38;;;2.78;;
17261;SDS011;9873;52.236;21.002;2022-09-03T07:45:36;7.95;;;2.40;;
17261;SDS011;9873;52.236;21.002;2022-09-03T07:55:43;4.18;;;2.30;;
17261;SDS011;9873;52.236;21.002;2022-09-03T08:05:49;5.90;;;2.13;;
17261;SDS011;9873;52.236;21.002;2022-09-03T08:15:54;3.55;;;1.77;;
17261;SDS011;9873;52.236;21.002;2022-09-03T08:26:01;5.50;;;1.80;;
17261;SDS011;9873;52.236;21.002;2022-09-03T08:46:16;5.78;;;2.10;;
17261;SDS011;9873;52.236;21.002;2022-09-03T08:56:27;2.85;;;1.95;;
17261;SDS011;9873;52.236;21.002;2022-09-03T09:06:40;2.55;;;1.70;;
17261;SDS011;9873;52.236;21.002;2022-09-03T09:27:59;2.35;;;1.20;;
17261;SDS011;9873;52.236;21.002;2022-09-03T09:38:10;1.60;;;0.95;;
17261;SDS011;9873;52.236;21.002;2022-09-03T09:48:31;6.07;;;1.30;;
17261;SDS011;9873;52.236;21.002;2022-09-03T09:58:35;3.58;;;1.00;;
17261;SDS011;9873;52.236;21.002;2022-09-03T10:08:39;2.25;;;1.25;;
17261;SDS011;9873;52.236;21.002;2022-09-03T10:28:56;3.42;;;1.33;;
17261;SDS011;9873;52.236;21.002;2022-09-03T10:39:21;2.53;;;1.35;;
17261;SDS011;9873;52.236;21.002;2022-09-03T10:49:50;1.83;;;1.10;;
17261;SDS011;9873;52.236;21.002;2022-09-03T11:00:11;1.25;;;1.00;;
17261;SDS011;9873;52.236;21.002;2022-09-03T11:10:19;2.60;;;1.20;;
17261;SDS011;9873;52.236;21.002;2022-09-03T11:20:34;1.33;;;0.80;;
17261;SDS011;9873;52.236;21.002;2022-09-03T12:01:33;2.45;;;0.95;;
17261;SDS011;9873;52.236;21.002;2022-09-03T12:11:48;1.42;;;0.85;;
17261;SDS011;9873;52.236;21.002;2022-09-03T12:22:17;3.30;;;0.80;;
17261;SDS011;9873;52.236;21.002;2022-09-03T12:32:30;2.10;;;1.00;;
17261;SDS011;9873;52.236;21.002;2022-09-03T12:42:38;3.60;;;0.98;;
17261;SDS011;9873;52.236;21.002;2022-09-03T12:52:51;1.75;;;1.25;;
17261;SDS011;9873;52.236;21.002;2022-09-03T13:13:04;2.25;;;1.00;;
17261;SDS011;9873;52.236;21.002;2022-09-03T13:33:39;1.65;;;1.08;;
17261;SDS011;9873;52.236;21.002;2022-09-03T14:15:06;1.92;;;1.20;;
17261;SDS011;9873;52.236;21.002;2022-09-03T14:25:17;3.47;;;1.10;;
17261;SDS011;9873;52.236;21.002;2022-09-03T14:45:51;2.35;;;0.93;;
17261;SDS011;9873;52.236;21.002;2022-09-03T15:37:51;2.10;;;1.13;;
17261;SDS011;9873;52.236;21.002;2022-09-03T15:58:29;1.20;;;1.10;;
17261;SDS011;9873;52.236;21.002;2022-09-03T16:08:54;2.22;;;1.20;;
17261;SDS011;9873;52.236;21.002;2022-09-03T16:19:15;2.88;;;1.40;;
17261;SDS011;9873;52.236;21.002;2022-09-03T16:29:26;1.92;;;1.38;;
17261;SDS011;9873;52.236;21.002;2022-09-03T16:50:22;6.38;;;1.80;;
17261;SDS011;9873;52.236;21.002;2022-09-03T17:00:41;3.55;;;1.40;;
17261;SDS011;9873;52.236;21.002;2022-09-03T17:11:10;4.00;;;1.98;;
17261;SDS011;9873;52.236;21.002;2022-09-03T17:31:46;2.53;;;1.60;;
17261;SDS011;9873;52.236;21.002;2022-09-03T17:42:03;5.10;;;1.83;;
17261;SDS011;9873;52.236;21.002;2022-09-03T17:52:17;3.47;;;2.15;;
17261;SDS011;9873;52.236;21.002;2022-09-03T18:02:30;5.65;;;2.63;;
17261;SDS011;9873;52.236;21.002;2022-09-03T18:33:53;3.30;;;2.10;;
17261;SDS011;9873;52.236;21.002;2022-09-03T18:55:34;5.45;;;2.80;;
17261;SDS011;9873;52.236;21.002;2022-09-03T19:06:17;5.40;;;3.58;;
17261;SDS011;9873;52.236;21.002;2022-09-03T19:27:54;4.15;;;2.22;;
17261;SDS011;9873;52.236;21.002;2022-09-03T19:50:10;5.57;;;2.40;;
17261;SDS011;9873;52.236;21.002;2022-09-03T20:00:32;6.32;;;2.33;;
17261;SDS011;9873;52.236;21.002;2022-09-03T20:10:55;7.97;;;2.42;;
17261;SDS011;9873;52.236;21.002;2022-09-03T20:31:30;4.32;;;2.67;;
17261;SDS011;9873;52.236;21.002;2022-09-03T20:52:11;6.65;;;3.58;;
17261;SDS011;9873;52.236;21.002;2022-09-03T21:23:32;6.30;;;3.63;;
17261;SDS011;9873;52.236;21.002;2022-09-03T21:33:37;10.20;;;3.80;;
17261;SDS011;9873;52.236;21.002;2022-09-03T21:53:57;8.30;;;3.97;;
17261;SDS011;9873;52.236;21.002;2022-09-03T22:04:14;7.15;;;4.63;;
17261;SDS011;9873;52.236;21.002;2022-09-03T22:14:16;7.38;;;4.70;;
17261;SDS011;9873;52.236;21.002;2022-09-03T22:55:30;8.35;;;5.35;;
17261;SDS011;9873;52.236;21.002;2022-09-03T23:15:56;11.10;;;6.18;;
17261;SDS011;9873;52.236;21.002;2022-09-03T23:57:44;11.15;;;6.65;;
